Time;durP1;ratioP1;P1;durP2;ratioP2;P2;SDS_P1;SDS_P2;PMS_P1;PMS_P2;Temp;Humidity;BMP_temperature;BMP_pressure;BME280_temperature;BME280_humidity;BME280_pressure;Samples;Min_cycle;Max_cycle;Signal;HPM_P1;HPM_P2
2021/07/06 00:02:16;;;;;;;5.70;5.10;;;24.30;79.20;;;;;;5057652;28;20013;-65
2021/07/06 00:04:42;;;;;;;5.75;5.18;;;24.30;79.40;;;;;;5054452;28;20469;-65
2021/07/06 00:07:07;;;;;;;5.85;4.55;;;24.30;79.30;;;;;;5053749;28;20078;-65
2021/07/06 00:09:33;;;;;;;5.85;5.03;;;24.30;79.20;;;;;;5054478;28;20427;-65
2021/07/06 00:11:59;;;;;;;5.38;4.80;;;24.30;79.30;;;;;;5053294;28;20043;-65
2021/07/06 00:14:24;;;;;;;6.55;5.03;;;24.30;79.60;;;;;;5054516;28;20027;-65
2021/07/06 00:16:50;;;;;;;5.32;4.82;;;24.30;79.50;;;;;;5054800;28;20060;-65
2021/07/06 00:19:16;;;;;;;6.20;5.30;;;24.30;79.60;;;;;;5054120;28;20056;-65
2021/07/06 00:21:42;;;;;;;6.80;5.07;;;24.20;79.70;;;;;;5054237;28;20032;-65
2021/07/06 00:24:08;;;;;;;7.50;5.10;;;24.20;79.90;;;;;;5048580;28;20032;-65
2021/07/06 00:26:33;;;;;;;5.85;5.00;;;24.20;79.80;;;;;;5034108;28;20042;-65
2021/07/06 00:28:59;;;;;;;8.77;5.47;;;24.30;79.80;;;;;;5034299;28;20031;-65
2021/07/06 00:31:25;;;;;;;7.40;5.47;;;24.20;80.00;;;;;;5034221;28;20036;-65
2021/07/06 00:33:52;;;;;;;7.15;5.65;;;24.20;80.20;;;;;;5051345;28;20471;-65
2021/07/06 00:36:17;;;;;;;8.88;5.10;;;24.20;80.40;;;;;;5053942;28;20052;-65
2021/07/06 00:38:43;;;;;;;6.45;5.22;;;24.20;80.50;;;;;;5053002;28;20493;-65
2021/07/06 00:41:09;;;;;;;6.88;5.35;;;24.20;80.20;;;;;;5059820;28;20021;-65
2021/07/06 00:43:37;;;;;;;6.10;5.25;;;24.20;80.10;;;;;;5074244;28;20119;-65
2021/07/06 00:46:04;;;;;;;5.90;5.30;;;24.20;80.30;;;;;;5073883;28;20496;-65
2021/07/06 00:48:30;;;;;;;6.30;5.13;;;24.20;80.40;;;;;;5073590;28;20032;-65
2021/07/06 00:50:56;;;;;;;5.28;4.75;;;24.20;80.30;;;;;;5072895;28;20020;-65
2021/07/06 00:53:22;;;;;;;6.53;5.50;;;24.10;80.30;;;;;;5059041;28;20040;-65
2021/07/06 00:55:51;;;;;;;5.90;5.13;;;24.20;80.50;;;;;;5053627;28;20032;-65
2021/07/06 00:58:17;;;;;;;6.07;5.53;;;24.20;80.70;;;;;;5053802;28;20079;-65
2021/07/06 01:00:43;;;;;;;6.72;5.22;;;24.10;80.80;;;;;;5053920;28;20032;-65
2021/07/06 01:03:10;;;;;;;5.85;5.30;;;24.20;80.60;;;;;;5053464;28;20036;-65
2021/07/06 01:05:36;;;;;;;6.70;5.78;;;24.10;80.80;;;;;;5053617;28;20025;-65
2021/07/06 01:08:03;;;;;;;5.53;4.68;;;24.10;80.80;;;;;;5053783;28;20039;-65
2021/07/06 01:10:28;;;;;;;6.38;5.70;;;24.20;80.60;;;;;;5053479;28;20112;-65
2021/07/06 01:12:55;;;;;;;6.95;5.45;;;24.10;80.90;;;;;;5053494;28;20159;-65
2021/07/06 01:15:27;;;;;;;7.15;5.68;;;24.10;80.80;;;;;;5053880;28;20036;-65
2021/07/06 01:18:07;;;;;;;8.02;6.00;;;24.10;80.70;;;;;;5052974;28;20029;-65
2021/07/06 01:20:36;;;;;;;7.75;5.82;;;24.10;80.70;;;;;;5053565;28;20381;-65
2021/07/06 01:23:02;;;;;;;5.82;5.22;;;24.10;80.70;;;;;;5053809;28;20031;-65
2021/07/06 01:25:28;;;;;;;7.70;5.47;;;24.10;80.90;;;;;;5036474;28;20436;-65
2021/07/06 01:27:54;;;;;;;6.53;5.35;;;24.10;81.00;;;;;;5033580;28;20029;-65
2021/07/06 01:30:20;;;;;;;6.80;5.32;;;24.10;81.10;;;;;;5033374;28;20030;-65
2021/07/06 01:32:48;;;;;;;6.22;5.53;;;24.10;81.20;;;;;;5033585;28;20032;-65
2021/07/06 01:35:16;;;;;;;6.15;5.55;;;24.10;80.90;;;;;;5044413;28;20560;-65
2021/07/06 01:37:47;;;;;;;7.18;5.88;;;24.10;81.00;;;;;;5053211;28;20043;-65
2021/07/06 01:40:14;;;;;;;6.50;5.90;;;24.10;81.30;;;;;;5047047;28;20017;-65
2021/07/06 01:42:41;;;;;;;7.95;5.90;;;24.00;80.80;;;;;;5073232;28;20028;-65
2021/07/06 01:45:28;;;;;;;6.82;5.53;;;24.00;81.10;;;;;;5073067;28;20033;-65
2021/07/06 01:47:58;;;;;;;7.63;5.93;;;24.00;80.80;;;;;;5073276;28;20120;-65
2021/07/06 01:50:27;;;;;;;7.20;5.90;;;24.00;80.90;;;;;;5073191;28;20020;-65
2021/07/06 01:52:58;;;;;;;8.30;6.05;;;23.90;80.90;;;;;;5073298;28;20029;-66
2021/07/06 01:55:25;;;;;;;5.85;5.20;;;23.90;80.90;;;;;;5073236;28;20020;-65
2021/07/06 01:57:53;;;;;;;5.90;5.18;;;23.90;80.90;;;;;;5072173;28;20028;-65
2021/07/06 02:00:22;;;;;;;5.97;5.38;;;23.90;81.10;;;;;;5073071;28;20479;-65
2021/07/06 02:02:49;;;;;;;7.40;5.70;;;23.90;81.10;;;;;;5073267;28;20025;-65
2021/07/06 02:05:18;;;;;;;6.45;5.72;;;23.80;81.30;;;;;;5073211;28;20029;-65
2021/07/06 02:07:47;;;;;;;6.80;5.40;;;23.80;81.50;;;;;;5072883;28;20028;-65
2021/07/06 02:10:18;;;;;;;6.18;5.57;;;23.80;81.40;;;;;;5070941;28;20036;-65
2021/07/06 02:12:44;;;;;;;8.32;6.50;;;23.80;81.60;;;;;;5055740;28;20396;-65
2021/07/06 02:15:13;;;;;;;7.13;6.38;;;23.80;81.60;;;;;;5071382;28;20033;-65
2021/07/06 02:17:39;;;;;;;7.85;5.70;;;23.80;81.50;;;;;;5073242;28;20082;-65
2021/07/06 02:20:10;;;;;;;7.20;6.07;;;23.80;81.40;;;;;;5073133;28;20441;-65
2021/07/06 02:22:36;;;;;;;10.15;5.55;;;23.80;81.80;;;;;;5061882;28;20029;-65
2021/07/06 02:25:03;;;;;;;6.75;5.55;;;23.80;81.90;;;;;;5052474;28;20111;-65
2021/07/06 02:27:29;;;;;;;6.78;5.70;;;23.80;81.90;;;;;;5053151;28;20032;-65
2021/07/06 02:29:55;;;;;;;6.30;5.65;;;23.80;81.90;;;;;;5034403;28;20458;-65
2021/07/06 02:32:20;;;;;;;6.38;5.32;;;23.90;81.80;;;;;;5049761;28;20072;-65
2021/07/06 02:34:46;;;;;;;6.43;5.82;;;23.90;81.70;;;;;;5057516;28;20143;-65
2021/07/06 02:37:12;;;;;;;6.20;5.60;;;23.90;81.60;;;;;;5054802;28;20029;-65
2021/07/06 02:39:38;;;;;;;7.53;5.47;;;24.00;81.50;;;;;;5053909;28;20082;-64
2021/07/06 02:42:03;;;;;;;7.63;5.95;;;24.00;81.40;;;;;;5042825;28;20086;-65
2021/07/06 02:44:29;;;;;;;7.80;6.15;;;24.00;81.40;;;;;;5076135;28;20047;-65
2021/07/06 02:46:55;;;;;;;7.28;5.95;;;24.10;81.50;;;;;;5076040;28;20043;-64
2021/07/06 02:49:20;;;;;;;7.40;6.28;;;24.20;81.10;;;;;;5075239;28;20021;-65
2021/07/06 02:51:46;;;;;;;8.05;5.90;;;24.20;81.50;;;;;;5075886;28;20386;-65
2021/07/06 02:54:12;;;;;;;6.57;5.95;;;24.20;81.10;;;;;;5076138;28;20036;-65
2021/07/06 02:56:37;;;;;;;6.80;6.00;;;24.20;80.80;;;;;;5075292;28;20040;-65
2021/07/06 02:59:03;;;;;;;7.30;6.38;;;24.30;81.00;;;;;;5075885;28;20024;-65
2021/07/06 03:01:29;;;;;;;8.25;6.18;;;24.30;80.70;;;;;;5076074;28;20354;-65
2021/07/06 03:03:55;;;;;;;6.82;5.90;;;24.40;80.60;;;;;;5075981;28;20031;-64
2021/07/06 03:06:21;;;;;;;7.07;6.32;;;24.40;80.40;;;;;;5074327;28;20100;-64
2021/07/06 03:08:48;;;;;;;6.28;5.68;;;24.50;80.00;;;;;;5075631;28;20040;-65
2021/07/06 03:11:14;;;;;;;6.72;5.97;;;24.60;80.10;;;;;;5061447;28;20047;-65
2021/07/06 03:13:40;;;;;;;9.75;5.93;;;24.60;79.80;;;;;;5055594;28;20116;-64
2021/07/06 03:16:06;;;;;;;7.13;6.10;;;24.60;79.90;;;;;;5055940;28;20029;-65
2021/07/06 03:18:31;;;;;;;6.95;6.13;;;24.60;79.80;;;;;;5055355;28;20400;-64
2021/07/06 03:20:57;;;;;;;6.85;6.18;;;24.60;80.00;;;;;;5055436;28;20025;-65
2021/07/06 03:23:23;;;;;;;6.07;5.43;;;24.60;79.80;;;;;;5055865;28;20074;-65
2021/07/06 03:25:48;;;;;;;7.93;5.97;;;24.60;79.50;;;;;;5035831;28;20037;-64
2021/07/06 03:28:14;;;;;;;7.20;5.93;;;24.70;79.60;;;;;;5035789;28;20037;-64
2021/07/06 03:30:40;;;;;;;7.20;6.47;;;24.70;79.50;;;;;;5035253;28;20047;-65
2021/07/06 03:33:09;;;;;;;7.20;6.35;;;24.70;79.10;;;;;;5035613;28;20025;-64
2021/07/06 03:35:35;;;;;;;6.85;5.75;;;24.70;79.00;;;;;;5035417;28;20426;-64
2021/07/06 03:38:01;;;;;;;6.38;5.78;;;24.70;78.70;;;;;;5035230;28;20033;-64
2021/07/06 03:40:27;;;;;;;8.52;6.70;;;24.70;79.00;;;;;;5058478;28;20091;-64
2021/07/06 03:42:53;;;;;;;8.93;6.70;;;24.70;79.30;;;;;;5074748;28;20028;-64
2021/07/06 03:45:20;;;;;;;7.47;6.53;;;24.60;79.70;;;;;;5053803;28;20021;-64
2021/07/06 03:47:46;;;;;;;8.13;7.10;;;24.60;79.80;;;;;;5034307;28;20104;-65
2021/07/06 03:50:20;;;;;;;8.27;6.78;;;24.60;79.60;;;;;;5034362;28;20064;-64
2021/07/06 03:52:51;;;;;;;7.97;6.65;;;24.50;79.40;;;;;;5034323;28;20033;-64
2021/07/06 03:55:18;;;;;;;8.13;7.10;;;24.50;79.60;;;;;;5034198;28;20025;-64
2021/07/06 03:57:45;;;;;;;7.90;6.10;;;24.50;79.80;;;;;;5052388;28;20021;-64
2021/07/06 04:00:14;;;;;;;7.88;6.75;;;24.50;80.00;;;;;;5054656;28;20028;-64
2021/07/06 04:02:40;;;;;;;6.72;5.97;;;24.50;79.80;;;;;;5054782;28;20032;-64
2021/07/06 04:05:08;;;;;;;8.20;6.70;;;24.50;79.70;;;;;;5054883;28;20025;-64
2021/07/06 04:07:34;;;;;;;6.55;5.90;;;24.60;79.70;;;;;;5054491;28;20031;-64
2021/07/06 04:10:00;;;;;;;7.60;6.72;;;24.70;79.80;;;;;;5054533;28;20039;-64
2021/07/06 04:12:26;;;;;;;7.57;6.50;;;24.70;79.80;;;;;;5054486;28;20025;-64
2021/07/06 04:14:52;;;;;;;7.80;6.97;;;24.80;79.40;;;;;;5054949;28;20112;-64
2021/07/06 04:17:17;;;;;;;7.85;6.47;;;24.90;79.00;;;;;;5054340;28;20468;-64
2021/07/06 04:19:43;;;;;;;9.13;6.32;;;24.90;78.80;;;;;;5054640;28;20361;-64
2021/07/06 04:22:09;;;;;;;7.47;6.72;;;24.90;78.50;;;;;;5054528;28;20048;-64
2021/07/06 04:24:35;;;;;;;9.10;7.60;;;24.90;78.50;;;;;;5044792;28;20045;-64
2021/07/06 04:27:01;;;;;;;7.05;6.35;;;24.90;78.60;;;;;;5034204;28;20159;-64
2021/07/06 04:29:26;;;;;;;8.02;7.22;;;24.80;78.60;;;;;;5034325;28;20022;-64
2021/07/06 04:31:53;;;;;;;8.02;7.00;;;24.80;78.80;;;;;;5070794;28;20104;-64
2021/07/06 04:34:20;;;;;;;7.20;6.50;;;24.90;79.00;;;;;;5058276;28;20033;-64
2021/07/06 04:36:46;;;;;;;7.72;6.68;;;24.90;78.90;;;;;;5054046;28;20037;-64
2021/07/06 04:39:12;;;;;;;9.80;6.60;;;24.90;78.50;;;;;;5053687;28;20725;-64
2021/07/06 04:41:38;;;;;;;8.40;6.60;;;24.90;78.60;;;;;;5039748;28;20112;-64
2021/07/06 04:44:03;;;;;;;8.68;7.18;;;24.80;78.50;;;;;;5034004;28;20418;-64
2021/07/06 04:46:29;;;;;;;7.88;7.07;;;24.80;78.70;;;;;;5034162;28;20024;-65
2021/07/06 04:48:55;;;;;;;9.18;7.10;;;24.80;78.90;;;;;;5053454;28;20037;-64
2021/07/06 04:51:21;;;;;;;9.63;7.47;;;24.80;79.20;;;;;;5053953;28;20025;-64
2021/07/06 04:53:47;;;;;;;7.90;6.32;;;24.80;78.90;;;;;;5053594;28;20032;-64
2021/07/06 04:56:12;;;;;;;8.18;6.75;;;24.80;79.10;;;;;;5053709;28;20461;-64
2021/07/06 04:58:38;;;;;;;9.65;6.88;;;24.80;79.10;;;;;;5053537;28;20032;-64
2021/07/06 05:01:05;;;;;;;9.15;6.93;;;24.80;79.40;;;;;;5053101;28;20055;-66
2021/07/06 05:03:34;;;;;;;10.52;7.35;;;24.90;79.40;;;;;;5053587;28;20033;-67
2021/07/06 05:06:00;;;;;;;8.25;7.43;;;25.10;79.80;;;;;;5051809;28;20021;-67
2021/07/06 05:08:26;;;;;;;9.20;7.78;;;25.40;79.00;;;;;;5053003;28;20036;-67
2021/07/06 05:10:52;;;;;;;7.93;7.05;;;25.60;78.00;;;;;;5045769;28;20033;-67
2021/07/06 05:13:18;;;;;;;10.60;6.90;;;25.90;77.90;;;;;;5044158;28;20036;-66
2021/07/06 05:15:44;;;;;;;8.13;7.25;;;26.30;77.00;;;;;;5051110;28;20032;-67
2021/07/06 05:18:10;;;;;;;7.43;6.65;;;26.80;75.90;;;;;;5053028;28;20503;-67
2021/07/06 05:20:37;;;;;;;8.18;7.38;;;27.20;74.30;;;;;;5053022;28;20060;-67
2021/07/06 05:23:02;;;;;;;9.32;7.93;;;27.50;73.30;;;;;;5050574;28;20110;-67
2021/07/06 05:25:28;;;;;;;7.78;6.97;;;27.80;72.00;;;;;;5052845;28;20124;-66
2021/07/06 05:27:54;;;;;;;8.45;7.55;;;28.10;71.10;;;;;;5052967;28;20033;-67
2021/07/06 05:30:20;;;;;;;8.05;6.80;;;28.40;70.50;;;;;;5050958;28;20091;-67
2021/07/06 05:32:46;;;;;;;6.93;6.22;;;28.40;69.50;;;;;;5051662;28;20025;-67
2021/07/06 05:35:12;;;;;;;7.70;7.00;;;28.40;68.90;;;;;;5045363;28;20117;-67
2021/07/06 05:37:39;;;;;;;8.00;7.20;;;28.30;68.90;;;;;;5043474;28;20033;-67
2021/07/06 05:40:06;;;;;;;7.68;6.88;;;28.10;69.10;;;;;;5052213;28;21193;-67
2021/07/06 05:42:34;;;;;;;10.07;8.13;;;28.00;69.50;;;;;;5047784;28;20078;-67
2021/07/06 05:45:00;;;;;;;7.35;6.65;;;27.90;70.40;;;;;;5042024;28;20025;-67
2021/07/06 05:47:26;;;;;;;8.85;8.05;;;27.80;70.60;;;;;;5040313;28;20083;-67
2021/07/06 05:49:51;;;;;;;8.38;7.10;;;27.70;71.00;;;;;;5040737;28;20554;-67
2021/07/06 05:52:17;;;;;;;8.65;7.63;;;27.70;71.10;;;;;;5049378;28;20480;-67
2021/07/06 05:54:43;;;;;;;10.05;8.38;;;27.60;71.20;;;;;;5036385;28;20025;-67
2021/07/06 05:57:08;;;;;;;8.52;7.45;;;27.60;71.10;;;;;;5033083;28;20024;-67
2021/07/06 05:59:34;;;;;;;9.13;8.07;;;27.50;71.80;;;;;;5037240;28;20053;-67
2021/07/06 06:02:00;;;;;;;8.05;7.25;;;27.50;71.60;;;;;;5043949;28;20028;-67
2021/07/06 06:04:26;;;;;;;10.63;8.52;;;27.50;71.60;;;;;;5034238;28;20454;-67
2021/07/06 06:06:52;;;;;;;10.20;9.13;;;27.40;71.50;;;;;;5034306;28;20127;-67
2021/07/06 06:09:19;;;;;;;9.93;8.38;;;27.40;71.70;;;;;;5041185;28;20117;-66
2021/07/06 06:11:45;;;;;;;8.95;8.05;;;27.40;71.70;;;;;;5043251;28;20025;-66
2021/07/06 06:14:11;;;;;;;9.38;8.48;;;27.50;71.60;;;;;;5032578;28;20037;-65
2021/07/06 06:16:36;;;;;;;10.10;8.95;;;27.40;71.50;;;;;;5035716;28;20044;-64
2021/07/06 06:19:03;;;;;;;8.85;7.95;;;27.40;71.30;;;;;;5030742;28;20124;-65
2021/07/06 06:21:29;;;;;;;9.98;8.98;;;27.30;71.30;;;;;;5036694;28;20043;-64
2021/07/06 06:23:56;;;;;;;8.63;7.82;;;27.20;71.50;;;;;;5038153;28;22208;-65
2021/07/06 06:26:22;;;;;;;8.85;8.00;;;27.20;71.80;;;;;;5039312;28;20056;-65
2021/07/06 06:28:47;;;;;;;11.73;9.13;;;27.00;71.80;;;;;;5040635;28;20025;-64
2021/07/06 06:31:13;;;;;;;9.57;7.82;;;26.90;72.30;;;;;;5038248;28;20036;-66
2021/07/06 06:33:39;;;;;;;8.88;7.15;;;26.80;72.50;;;;;;5036657;28;20068;-66
2021/07/06 06:36:04;;;;;;;8.70;6.43;;;26.70;72.80;;;;;;5040282;28;20033;-64
2021/07/06 06:38:30;;;;;;;8.90;7.22;;;26.60;72.90;;;;;;5031813;28;20048;-63
2021/07/06 06:40:56;;;;;;;9.32;6.93;;;26.50;73.10;;;;;;5032746;28;20025;-63
2021/07/06 06:43:21;;;;;;;7.47;6.70;;;26.50;73.40;;;;;;5039635;28;20068;-64
2021/07/06 06:45:47;;;;;;;8.25;7.45;;;26.50;73.60;;;;;;5033335;28;20079;-64
2021/07/06 06:48:13;;;;;;;12.73;9.85;;;26.40;73.70;;;;;;5033717;28;20497;-63
2021/07/06 06:50:39;;;;;;;11.82;9.23;;;26.40;73.90;;;;;;5035045;28;20044;-64
2021/07/06 06:53:05;;;;;;;11.35;9.82;;;26.40;73.70;;;;;;5036860;28;20029;-63
2021/07/06 06:55:32;;;;;;;11.50;8.75;;;26.30;74.10;;;;;;5030222;28;20048;-63
2021/07/06 06:57:57;;;;;;;11.40;9.40;;;26.20;74.00;;;;;;5032409;28;20041;-64
2021/07/06 07:00:23;;;;;;;10.23;9.20;;;26.20;74.80;;;;;;5028049;28;20040;-63
2021/07/06 07:02:50;;;;;;;10.00;8.75;;;26.20;74.90;;;;;;5023195;28;20053;-65
2021/07/06 07:05:17;;;;;;;11.23;8.82;;;26.10;74.80;;;;;;5029404;28;20082;-63
2021/07/06 07:07:43;;;;;;;9.90;8.82;;;26.10;74.90;;;;;;5031781;28;20041;-62
2021/07/06 07:10:12;;;;;;;10.48;8.82;;;26.10;75.00;;;;;;5029789;28;20429;-62
2021/07/06 07:12:40;;;;;;;9.87;8.87;;;26.10;75.20;;;;;;5030057;28;20058;-62
2021/07/06 07:15:10;;;;;;;10.32;8.55;;;26.20;75.20;;;;;;5029912;28;20033;-63
2021/07/06 07:17:37;;;;;;;12.00;9.40;;;26.20;75.20;;;;;;5028867;28;20116;-61
2021/07/06 07:20:07;;;;;;;10.38;8.60;;;26.30;75.60;;;;;;5034391;28;20037;-63
2021/07/06 07:22:34;;;;;;;10.73;9.70;;;26.50;75.10;;;;;;5026578;28;20040;-65
2021/07/06 07:25:00;;;;;;;9.02;8.13;;;26.60;75.20;;;;;;5028199;28;20091;-65
2021/07/06 07:27:26;;;;;;;9.95;8.95;;;26.70;75.00;;;;;;5025305;28;20635;-64
2021/07/06 07:29:51;;;;;;;9.43;8.52;;;26.90;74.40;;;;;;5031507;28;20029;-64
2021/07/06 07:32:18;;;;;;;9.43;8.48;;;26.90;73.80;;;;;;5025700;28;20044;-64
2021/07/06 07:34:43;;;;;;;8.80;7.90;;;27.00;73.80;;;;;;5031219;28;20061;-64
2021/07/06 07:37:09;;;;;;;10.27;9.05;;;27.10;73.50;;;;;;5029843;28;20112;-65
2021/07/06 07:39:37;;;;;;;9.15;7.75;;;27.20;74.20;;;;;;5032739;28;21118;-64
2021/07/06 07:42:04;;;;;;;10.70;8.80;;;27.20;73.30;;;;;;5029939;28;20021;-64
2021/07/06 07:44:31;;;;;;;9.88;8.73;;;27.20;73.30;;;;;;5028011;28;20029;-63
2021/07/06 07:46:57;;;;;;;10.20;9.10;;;27.20;73.30;;;;;;5024115;28;20127;-64
2021/07/06 07:49:22;;;;;;;12.52;9.60;;;27.20;73.20;;;;;;5029340;28;20041;-65
2021/07/06 07:51:48;;;;;;;9.30;8.32;;;27.20;73.20;;;;;;5031672;28;20041;-65
2021/07/06 07:54:14;;;;;;;12.45;9.27;;;27.20;73.40;;;;;;5030598;28;20115;-65
2021/07/06 07:56:41;;;;;;;10.88;9.40;;;27.20;73.20;;;;;;5029668;28;20029;-65
2021/07/06 07:59:11;;;;;;;9.27;8.30;;;27.20;73.10;;;;;;5026393;28;20041;-65
2021/07/06 08:01:37;;;;;;;9.93;8.93;;;27.20;73.40;;;;;;5020879;28;20025;-64
2021/07/06 08:04:02;;;;;;;9.07;8.13;;;27.20;73.70;;;;;;5026010;28;20102;-65
2021/07/06 08:06:28;;;;;;;8.93;7.82;;;27.20;73.50;;;;;;5026943;28;20029;-64
2021/07/06 08:08:54;;;;;;;11.10;8.32;;;27.20;73.20;;;;;;5023524;28;20035;-65
2021/07/06 08:11:20;;;;;;;9.20;7.63;;;27.20;73.30;;;;;;5030327;28;20033;-65
2021/07/06 08:13:46;;;;;;;8.25;7.38;;;27.20;72.90;;;;;;5026230;28;20037;-67
2021/07/06 08:16:12;;;;;;;8.23;7.40;;;27.20;73.30;;;;;;5018331;28;20041;-64
2021/07/06 08:18:38;;;;;;;8.30;7.50;;;27.20;73.30;;;;;;5031102;28;20389;-65
2021/07/06 08:21:04;;;;;;;8.13;7.32;;;27.20;73.10;;;;;;5028117;28;20511;-63
2021/07/06 08:23:29;;;;;;;8.75;7.85;;;27.20;72.90;;;;;;5028106;28;20480;-64
2021/07/06 08:25:55;;;;;;;8.30;6.70;;;27.20;72.80;;;;;;5032249;28;20055;-64
2021/07/06 08:28:26;;;;;;;9.35;7.50;;;27.20;72.80;;;;;;5019872;28;20527;-66
2021/07/06 08:30:52;;;;;;;8.70;7.20;;;27.20;72.40;;;;;;5026367;28;20083;-62
2021/07/06 08:33:19;;;;;;;8.98;7.07;;;27.20;72.30;;;;;;5045540;28;20082;-65
2021/07/06 08:35:45;;;;;;;8.30;7.00;;;27.20;72.30;;;;;;5025571;28;20479;-63
2021/07/06 08:38:13;;;;;;;8.60;6.88;;;27.20;72.00;;;;;;5027846;28;20191;-63
2021/07/06 08:40:40;;;;;;;8.55;5.97;;;27.20;72.00;;;;;;5025578;28;20068;-64
2021/07/06 08:43:06;;;;;;;7.00;6.30;;;27.20;71.60;;;;;;5015901;28;20786;-64
2021/07/06 08:45:33;;;;;;;8.02;5.35;;;27.20;71.50;;;;;;5028823;28;20024;-63
2021/07/06 08:47:59;;;;;;;6.22;5.47;;;27.10;71.20;;;;;;5031674;28;20163;-64
2021/07/06 08:50:25;;;;;;;8.02;5.90;;;27.10;71.30;;;;;;5028880;28;20485;-64
2021/07/06 08:52:51;;;;;;;6.13;5.47;;;27.10;71.30;;;;;;5032718;28;20091;-64
2021/07/06 08:55:21;;;;;;;6.13;5.00;;;27.10;71.10;;;;;;5030486;28;20029;-64
2021/07/06 08:57:52;;;;;;;6.15;5.55;;;27.00;70.70;;;;;;5028423;28;21115;-64
2021/07/06 09:00:17;;;;;;;;;;;27.00;71.00;;;;;;5024579;28;20583;-64
2021/07/06 09:02:59;;;;;;;6.35;5.07;;;26.90;71.10;;;;;;5026286;28;20047;-63
2021/07/06 09:05:25;;;;;;;6.82;5.55;;;26.90;71.40;;;;;;5026353;28;20098;-65
2021/07/06 09:07:51;;;;;;;7.80;6.03;;;26.90;71.60;;;;;;5029500;28;20033;-63
2021/07/06 09:10:21;;;;;;;6.43;5.75;;;26.90;71.30;;;;;;5026721;28;20075;-64
2021/07/06 09:12:47;;;;;;;7.25;5.22;;;26.90;71.40;;;;;;5023764;28;20017;-64
2021/07/06 09:15:20;;;;;;;7.45;5.55;;;26.90;71.30;;;;;;5027078;28;20899;-64
2021/07/06 09:18:02;;;;;;;6.82;6.15;;;26.80;71.40;;;;;;5023154;28;20054;-64
2021/07/06 09:20:27;;;;;;;7.85;5.20;;;26.80;71.50;;;;;;5036276;28;20028;-64
2021/07/06 09:22:53;;;;;;;6.90;5.95;;;26.80;71.30;;;;;;5028827;28;20421;-63
2021/07/06 09:25:26;;;;;;;6.38;5.55;;;26.80;71.70;;;;;;5023706;28;20041;-64
2021/07/06 09:27:52;;;;;;;6.43;5.03;;;26.80;71.90;;;;;;5025215;28;20060;-64
2021/07/06 09:30:19;;;;;;;7.43;5.80;;;26.80;72.30;;;;;;5025318;28;20040;-65
2021/07/06 09:32:48;;;;;;;5.82;5.22;;;26.80;72.30;;;;;;5029394;28;20074;-64
2021/07/06 09:35:16;;;;;;;6.72;5.18;;;26.80;72.10;;;;;;5027308;28;20102;-63
2021/07/06 09:37:55;;;;;;;6.18;4.90;;;26.80;72.30;;;;;;5028190;28;20133;-65
2021/07/06 09:40:31;;;;;;;11.80;6.07;;;26.90;72.30;;;;;;5026938;28;20108;-64
2021/07/06 09:43:26;;;;;;;6.20;5.50;;;26.90;72.10;;;;;;5030866;28;20028;-65
2021/07/06 09:46:04;;;;;;;6.68;5.28;;;26.90;72.10;;;;;;5031893;28;20052;-65
2021/07/06 09:48:32;;;;;;;6.53;5.43;;;27.00;72.30;;;;;;5033308;28;20029;-64
2021/07/06 09:51:17;;;;;;;6.05;5.30;;;27.00;72.20;;;;;;5035571;28;20036;-64
2021/07/06 09:53:54;;;;;;;7.47;4.60;;;27.00;71.60;;;;;;5035701;28;20492;-65
2021/07/06 09:56:22;;;;;;;6.10;4.57;;;27.00;71.70;;;;;;5036396;28;20496;-64
2021/07/06 09:59:00;;;;;;;5.22;4.72;;;27.00;71.90;;;;;;5034361;28;20083;-64
2021/07/06 10:01:28;;;;;;;5.95;5.35;;;27.10;71.70;;;;;;5027401;28;20026;-63
2021/07/06 10:03:55;;;;;;;5.97;5.38;;;27.10;71.80;;;;;;5030303;28;20029;-65
2021/07/06 10:06:23;;;;;;;7.22;5.32;;;27.10;71.90;;;;;;5023686;28;20105;-64
2021/07/06 10:08:50;;;;;;;7.57;4.22;;;27.20;71.70;;;;;;5026505;28;20524;-64
2021/07/06 10:11:16;;;;;;;5.85;4.40;;;27.20;71.30;;;;;;5033923;28;20147;-66
2021/07/06 10:13:42;;;;;;;6.80;4.65;;;27.20;71.50;;;;;;5028281;28;20040;-65
2021/07/06 10:16:08;;;;;;;5.82;4.45;;;27.20;70.90;;;;;;5039578;28;20025;-65
2021/07/06 10:18:35;;;;;;;4.57;4.00;;;27.30;71.30;;;;;;5028315;28;20056;-65
2021/07/06 10:21:02;;;;;;;5.05;3.97;;;27.30;69.80;;;;;;5034751;28;20040;-65
2021/07/06 10:23:28;;;;;;;4.93;3.63;;;27.20;69.70;;;;;;5036718;28;20026;-65
2021/07/06 10:25:56;;;;;;;4.13;3.72;;;27.30;70.20;;;;;;5031435;28;20489;-65
2021/07/06 10:28:24;;;;;;;4.53;3.63;;;27.30;69.30;;;;;;5031434;28;20119;-66
2021/07/06 10:30:50;;;;;;;4.07;3.65;;;27.30;68.90;;;;;;5035226;28;20034;-67
2021/07/06 10:33:33;;;;;;;4.55;3.65;;;27.30;69.00;;;;;;5033157;28;20448;-65
2021/07/06 10:36:02;;;;;;;3.95;3.55;;;27.30;69.40;;;;;;5030754;28;21501;-65
2021/07/06 10:38:39;;;;;;;4.22;3.83;;;27.30;68.80;;;;;;5027945;28;20040;-65
2021/07/06 10:41:23;;;;;;;3.97;3.67;;;27.30;68.80;;;;;;5034391;28;20040;-66
2021/07/06 10:43:51;;;;;;;3.75;3.45;;;27.30;68.20;;;;;;5032398;28;20064;-65
2021/07/06 10:46:20;;;;;;;3.92;3.50;;;27.40;68.20;;;;;;5031182;28;20025;-64
2021/07/06 10:49:00;;;;;;;4.00;3.60;;;27.40;68.60;;;;;;5030998;28;20540;-66
2021/07/06 10:51:36;;;;;;;;;;;27.50;68.70;;;;;;5028845;28;20033;-65
2021/07/06 10:54:22;;;;;;;3.75;3.35;;;27.40;68.50;;;;;;5029593;28;19923;-66
2021/07/06 10:56:49;;;;;;;4.55;3.75;;;27.50;68.00;;;;;;5021624;28;20553;-65
2021/07/06 10:59:30;;;;;;;4.35;3.95;;;27.50;68.10;;;;;;5028558;28;20041;-66
2021/07/06 11:02:11;;;;;;;3.97;3.58;;;27.50;69.60;;;;;;5030451;28;20092;-66
2021/07/06 11:04:42;;;;;;;4.80;3.55;;;27.50;68.50;;;;;;5038197;28;20120;-65
2021/07/06 11:07:28;;;;;;;4.82;3.63;;;27.50;68.10;;;;;;5029574;28;20048;-65
2021/07/06 11:09:53;;;;;;;4.95;3.53;;;27.60;68.60;;;;;;5032474;28;20652;-65
2021/07/06 11:12:22;;;;;;;4.53;4.03;;;27.60;68.20;;;;;;5033648;28;20037;-65
2021/07/06 11:14:55;;;;;;;5.13;3.90;;;27.60;68.20;;;;;;5031399;28;20041;-64
2021/07/06 11:17:36;;;;;;;4.20;3.78;;;27.60;68.20;;;;;;5029415;28;20043;-65
2021/07/06 11:20:05;;;;;;;4.35;3.30;;;27.70;67.50;;;;;;5031478;28;20154;-65
2021/07/06 11:22:47;;;;;;;4.20;3.28;;;27.70;68.00;;;;;;5029680;28;20029;-67
2021/07/06 11:25:20;;;;;;;4.45;3.63;;;27.70;67.10;;;;;;5032009;28;20060;-66
2021/07/06 11:28:15;;;;;;;5.75;3.70;;;27.80;67.20;;;;;;5031704;28;20124;-65
2021/07/06 11:30:42;;;;;;;5.15;3.30;;;27.80;67.40;;;;;;5029673;28;20065;-65
2021/07/06 11:33:18;;;;;;;4.53;3.65;;;27.90;67.20;;;;;;5028038;28;20021;-64
2021/07/06 11:35:53;;;;;;;3.97;3.42;;;27.90;66.40;;;;;;5022995;28;20033;-64
2021/07/06 11:38:21;;;;;;;3.65;3.35;;;28.00;67.00;;;;;;5030379;28;20815;-64
2021/07/06 11:40:54;;;;;;;4.20;3.80;;;28.10;66.70;;;;;;5025916;28;20032;-63
2021/07/06 11:43:22;;;;;;;4.28;3.60;;;28.10;66.50;;;;;;5026406;28;20148;-63
2021/07/06 11:46:02;;;;;;;4.85;3.65;;;28.10;66.60;;;;;;5043813;28;20085;-64
2021/07/06 11:48:30;;;;;;;5.22;3.63;;;28.10;66.70;;;;;;5031984;28;20033;-63
2021/07/06 11:50:59;;;;;;;4.03;3.10;;;28.10;66.40;;;;;;5030000;28;20051;-63
2021/07/06 11:53:38;;;;;;;3.72;3.40;;;28.20;66.30;;;;;;5029497;28;20087;-63
2021/07/06 11:56:06;;;;;;;5.22;3.72;;;28.10;66.00;;;;;;5025514;28;20508;-63
2021/07/06 11:58:34;;;;;;;5.05;3.63;;;28.10;65.90;;;;;;5030968;28;23339;-65
2021/07/06 12:01:04;;;;;;;3.85;3.45;;;28.10;65.80;;;;;;5033923;28;20040;-65
2021/07/06 12:03:32;;;;;;;4.43;3.28;;;28.10;65.90;;;;;;5031955;28;20478;-64
2021/07/06 12:06:05;;;;;;;4.10;3.70;;;28.10;66.00;;;;;;5032766;28;20117;-64
2021/07/06 12:08:42;;;;;;;3.88;3.40;;;28.10;66.30;;;;;;5034807;28;20060;-65
2021/07/06 12:11:15;;;;;;;3.97;3.50;;;28.10;65.90;;;;;;5038296;28;20462;-64
2021/07/06 12:13:41;;;;;;;4.65;3.45;;;28.20;66.10;;;;;;5030745;28;20025;-64
2021/07/06 12:16:21;;;;;;;5.00;3.38;;;28.10;65.90;;;;;;5024321;28;20033;-62
2021/07/06 12:19:09;;;;;;;4.85;3.58;;;28.10;65.50;;;;;;5030734;28;20114;-62
2021/07/06 12:21:43;;;;;;;3.20;2.90;;;28.10;64.60;;;;;;5033339;28;20048;-63
2021/07/06 12:24:17;;;;;;;4.82;3.40;;;28.10;64.90;;;;;;5030716;28;20029;-62
2021/07/06 12:26:53;;;;;;;4.75;3.38;;;28.10;64.50;;;;;;5032589;28;20053;-63
2021/07/06 12:29:32;;;;;;;4.00;3.42;;;28.10;64.80;;;;;;5031142;28;20033;-62
2021/07/06 12:31:59;;;;;;;4.00;3.23;;;28.10;64.30;;;;;;5034619;28;20032;-64
2021/07/06 12:34:36;;;;;;;3.70;3.40;;;28.10;64.60;;;;;;5030943;28;20131;-63
2021/07/06 12:37:02;;;;;;;3.53;2.80;;;28.10;64.40;;;;;;5029989;28;20041;-64
2021/07/06 12:39:33;;;;;;;3.53;3.10;;;28.10;64.20;;;;;;5030607;28;20592;-64
2021/07/06 12:42:05;;;;;;;4.15;3.47;;;28.20;64.80;;;;;;5039288;28;20032;-63
2021/07/06 12:44:45;;;;;;;3.97;3.38;;;28.20;65.10;;;;;;5036635;28;20032;-62
2021/07/06 12:47:17;;;;;;;4.65;3.40;;;28.20;65.70;;;;;;5033982;28;20033;-60
2021/07/06 12:49:52;;;;;;;4.30;3.40;;;28.20;65.60;;;;;;5036207;28;20040;-59
2021/07/06 12:52:20;;;;;;;3.78;3.05;;;28.20;65.30;;;;;;5031520;28;20036;-63